createdAt,value
2023-02-22T00:00:22.968Z,98729.81
2023-02-22T00:03:17.905Z,98730.75
2023-02-22T00:05:47.398Z,98741.13
2023-02-22T00:08:15.016Z,98733.38
2023-02-22T00:10:41.819Z,98735.31
2023-02-22T00:13:09.909Z,98738.88
2023-02-22T00:15:36.936Z,98736.06
2023-02-22T00:18:05.023Z,98741.56
2023-02-22T00:20:31.824Z,98740.06
2023-02-22T00:23:01.466Z,98731.25
2023-02-22T00:25:28.267Z,98731.59
2023-02-22T00:27:56.276Z,98736.13
2023-02-22T00:30:26.811Z,98738.16
2023-02-22T00:32:55.957Z,98744.72
2023-02-22T00:35:24.824Z,98735.91
2023-02-22T00:37:52.815Z,98741.63
2023-02-22T00:40:21.652Z,98744.31
2023-02-22T00:42:48.787Z,98743.56
2023-02-22T00:45:22.308Z,98731.81
2023-02-22T00:47:49.467Z,98731.50
2023-02-22T00:50:19.171Z,98730.75
2023-02-22T00:52:46.311Z,98746.91
2023-02-22T00:55:19.037Z,98738.72
2023-02-22T00:57:46.186Z,98737.97
2023-02-22T01:00:18.724Z,98735.09
2023-02-22T01:02:50.803Z,98739.28
2023-02-22T01:05:21.096Z,98744.41
2023-02-22T01:07:48.857Z,98745.63
2023-02-22T01:10:16.549Z,98736.72
2023-02-22T01:12:43.713Z,98739.63
2023-02-22T01:15:11.134Z,98741.31
2023-02-22T01:17:39.213Z,98744.34
2023-02-22T01:20:12.895Z,98751.22
2023-02-22T01:22:47.607Z,98745.31
2023-02-22T01:25:19.641Z,98751.44
2023-02-22T01:27:46.825Z,98749.06
2023-02-22T01:30:14.351Z,98743.03
2023-02-22T01:32:42.103Z,98743.81
2023-02-22T01:35:11.804Z,98750.25
2023-02-22T01:37:39.217Z,98744.25
2023-02-22T01:40:07.348Z,98748.63
2023-02-22T01:42:34.465Z,98749.72
2023-02-22T01:45:35.976Z,98749.19
2023-02-22T01:48:10.408Z,98744.66
2023-02-22T01:50:39.998Z,98738.66
2023-02-22T01:53:07.614Z,98745.22
2023-02-22T01:55:34.367Z,98742.28
2023-02-22T01:58:02.058Z,98749.91
2023-02-22T02:00:28.880Z,98738.97
2023-02-22T02:03:00.219Z,98730.78
2023-02-22T02:05:27.741Z,98731.78
2023-02-22T02:07:54.773Z,98732.72
2023-02-22T02:10:21.987Z,98727.47
2023-02-22T02:12:49.893Z,98726.63
2023-02-22T02:15:25.735Z,98724.03
2023-02-22T02:17:53.915Z,98722.31
2023-02-22T02:20:35.213Z,98728.97
2023-02-22T02:23:36.823Z,98745.72
2023-02-22T02:26:14.399Z,98736.25
2023-02-22T02:29:12.627Z,98736.19
2023-02-22T02:32:16.835Z,98737.22
2023-02-22T02:34:51.018Z,98742.47
2023-02-22T02:37:26.967Z,98739.88
2023-02-22T02:39:54.058Z,98739.47
2023-02-22T02:42:22.839Z,98742.78
2023-02-22T02:44:53.663Z,98756.31
2023-02-22T02:47:26.479Z,98751.69
2023-02-22T02:50:10.325Z,98747.19
2023-02-22T02:52:37.405Z,98753.53
2023-02-22T02:55:04.853Z,98743.97
2023-02-22T02:57:32.531Z,98752.13
2023-02-22T02:59:59.623Z,98757.72
2023-02-22T03:02:47.425Z,98747.19
2023-02-22T03:05:37.350Z,98747.72
2023-02-22T03:08:16.193Z,98746.03
2023-02-22T03:11:07.038Z,98752.56
2023-02-22T03:13:56.738Z,98756.75
2023-02-22T03:16:32.900Z,98757.72
2023-02-22T03:19:08.334Z,98753.28
2023-02-22T03:21:55.012Z,98745.47
2023-02-22T03:24:43.164Z,98743.63
2023-02-22T03:27:13.081Z,98750.28
2023-02-22T03:29:41.112Z,98756.44
2023-02-22T03:32:10.785Z,98752.66
2023-02-22T03:34:43.032Z,98762.53
2023-02-22T03:37:18.126Z,98751.91
2023-02-22T03:39:44.923Z,98748.16
2023-02-22T03:42:29.617Z,98752.09
2023-02-22T03:44:58.197Z,98760.16
2023-02-22T03:47:46.172Z,98758.56
2023-02-22T03:50:15.857Z,98762.75
2023-02-22T03:52:47.445Z,98758.75
2023-02-22T03:55:17.703Z,98762.75
2023-02-22T03:57:56.956Z,98761.25
2023-02-22T04:00:26.012Z,98766.38
2023-02-22T04:02:53.138Z,98765.00
2023-02-22T04:08:06.419Z,98766.72
2023-02-22T04:10:33.683Z,98778.72
2023-02-22T04:13:01.036Z,98774.13
2023-02-22T04:15:28.004Z,98769.41
2023-02-22T04:17:55.234Z,98774.97
2023-02-22T04:20:25.541Z,98776.03
2023-02-22T04:22:53.707Z,98776.03
2023-02-22T04:25:21.259Z,98774.44
2023-02-22T04:27:48.640Z,98767.31
2023-02-22T04:30:17.345Z,98765.81
2023-02-22T04:32:44.415Z,98762.81
2023-02-22T04:35:11.272Z,98773.34
2023-02-22T04:37:38.358Z,98767.63
2023-02-22T04:40:08.534Z,98760.47
2023-02-22T04:42:36.276Z,98763.13
2023-02-22T04:45:08.013Z,98769.16
2023-02-22T04:47:35.922Z,98768.31
2023-02-22T04:50:03.811Z,98759.56
2023-02-22T04:52:30.984Z,98772.25
2023-02-22T04:54:57.722Z,98765.81
2023-02-22T04:57:24.798Z,98765.56
2023-02-22T04:59:51.550Z,98766.13
2023-02-22T05:02:18.967Z,98762.88
2023-02-22T05:04:45.789Z,98760.97
2023-02-22T05:07:12.882Z,98769.88
2023-02-22T05:09:39.649Z,98770.75
2023-02-22T05:12:07.055Z,98771.50
2023-02-22T05:14:33.829Z,98766.63
2023-02-22T05:17:01.256Z,98763.75
2023-02-22T05:19:28.148Z,98769.22
2023-02-22T05:21:56.561Z,98761.25
2023-02-22T05:24:23.362Z,98766.97
2023-02-22T05:26:51.373Z,98764.28
2023-02-22T05:29:18.196Z,98775.84
2023-02-22T05:31:45.430Z,98773.56
2023-02-22T05:34:12.446Z,98769.09
2023-02-22T05:36:39.467Z,98766.28
2023-02-22T05:39:06.339Z,98778.00
2023-02-22T05:41:33.397Z,98771.09
2023-02-22T05:44:00.207Z,98770.03
2023-02-22T05:46:27.426Z,98776.88
2023-02-22T05:48:54.204Z,98778.47
2023-02-22T05:51:21.314Z,98788.38
2023-02-22T05:53:48.254Z,98783.00
2023-02-22T05:56:21.776Z,98785.13
2023-02-22T05:58:48.546Z,98790.28
2023-02-22T06:01:15.939Z,98782.25
2023-02-22T06:03:42.770Z,98787.25
2023-02-22T06:06:10.398Z,98798.63
2023-02-22T06:08:37.271Z,98796.81
2023-02-22T06:11:04.484Z,98795.41
2023-02-22T06:13:31.305Z,98793.47
2023-02-22T06:15:59.088Z,98805.16
2023-02-22T06:18:26.748Z,98810.63
2023-02-22T06:20:53.866Z,98814.28
2023-02-22T06:23:20.648Z,98812.53
2023-02-22T06:25:47.991Z,98810.84
2023-02-22T06:28:15.748Z,98815.31
2023-02-22T06:30:43.113Z,98820.78
2023-02-22T06:33:10.608Z,98820.91
2023-02-22T06:35:37.673Z,98821.75
2023-02-22T06:38:05.548Z,98834.19
2023-02-22T06:40:32.565Z,98829.63
2023-02-22T06:42:59.959Z,98828.81
2023-02-22T06:45:27.248Z,98836.13
2023-02-22T06:47:54.485Z,98836.31
2023-02-22T06:50:22.853Z,98841.38
2023-02-22T06:52:49.677Z,98847.84
2023-02-22T06:55:21.291Z,98840.63
2023-02-22T06:57:48.250Z,98839.56
2023-02-22T07:00:17.293Z,98845.53
2023-02-22T07:02:44.071Z,98844.63
2023-02-22T07:05:12.825Z,98848.19
2023-02-22T07:07:39.834Z,98851.75
2023-02-22T07:10:08.204Z,98854.31
2023-02-22T07:12:35.538Z,98849.72
2023-02-22T07:15:02.705Z,98854.13
2023-02-22T07:17:29.558Z,98859.19
2023-02-22T07:19:56.737Z,98860.06
2023-02-22T07:22:23.583Z,98859.00
2023-02-22T07:24:50.724Z,98861.47
2023-02-22T07:27:17.994Z,98855.91
2023-02-22T07:29:45.043Z,98858.13
2023-02-22T07:32:11.831Z,98859.91
2023-02-22T07:34:39.073Z,98852.31
2023-02-22T07:37:05.832Z,98848.59
2023-02-22T07:39:34.487Z,98853.63
2023-02-22T07:42:01.246Z,98854.09
2023-02-22T07:44:28.375Z,98849.50
2023-02-22T07:46:55.128Z,98853.91
2023-02-22T07:49:22.164Z,98859.06
2023-02-22T07:51:48.960Z,98854.44
2023-02-22T07:54:16.049Z,98860.38
2023-02-22T07:56:49.442Z,98852.91
2023-02-22T07:59:16.631Z,98856.34
2023-02-22T08:01:43.469Z,98863.88
2023-02-22T08:04:10.599Z,98864.53
2023-02-22T08:06:37.379Z,98863.31
2023-02-22T08:09:04.456Z,98851.47
2023-02-22T08:11:31.237Z,98859.22
2023-02-22T08:13:58.317Z,98863.00
2023-02-22T08:16:25.081Z,98860.00
2023-02-22T08:18:52.191Z,98861.50
2023-02-22T08:21:19.235Z,98864.00
2023-02-22T08:23:47.713Z,98862.63
2023-02-22T08:26:15.737Z,98864.97
2023-02-22T08:28:43.249Z,98860.13
2023-02-22T08:31:10.666Z,98861.88
2023-02-22T08:33:37.892Z,98860.81
2023-02-22T08:36:05.025Z,98857.03
2023-02-22T08:38:34.006Z,98868.22
2023-02-22T08:41:00.817Z,98866.81
2023-02-22T08:43:28.554Z,98867.59
2023-02-22T08:45:57.398Z,98867.50
2023-02-22T08:48:24.843Z,98868.88
2023-02-22T08:50:51.890Z,98872.00
2023-02-22T08:53:19.099Z,98868.09
2023-02-22T08:55:45.957Z,98864.34
2023-02-22T08:58:13.315Z,98861.34
2023-02-22T09:00:40.604Z,98871.00
2023-02-22T09:03:13.402Z,98868.00
2023-02-22T09:05:41.268Z,98859.59
2023-02-22T09:08:08.682Z,98864.53
2023-02-22T09:10:35.859Z,98869.47
2023-02-22T09:13:04.096Z,98869.91
2023-02-22T09:15:31.263Z,98871.53
2023-02-22T09:17:58.472Z,98876.66
2023-02-22T09:20:25.309Z,98870.94
2023-02-22T09:22:52.756Z,98869.88
2023-02-22T09:25:22.971Z,98870.50
2023-02-22T09:27:51.230Z,98866.50
2023-02-22T09:30:26.323Z,98870.69
2023-02-22T09:32:59.308Z,98872.06
2023-02-22T09:35:29.008Z,98866.56
2023-02-22T09:37:56.816Z,98868.22
2023-02-22T09:40:29.832Z,98864.22
2023-02-22T09:43:07.271Z,98865.69
2023-02-22T09:45:38.138Z,98862.66
2023-02-22T09:48:20.920Z,98856.09
2023-02-22T09:50:48.999Z,98854.84
2023-02-22T09:53:29.339Z,98852.78
2023-02-22T09:56:06.690Z,98857.72
2023-02-22T09:58:36.817Z,98848.41
2023-02-22T10:01:15.889Z,98856.06
2023-02-22T10:04:01.173Z,98855.59
2023-02-22T10:06:28.351Z,98848.03
2023-02-22T10:08:57.644Z,98849.38
2023-02-22T10:11:56.211Z,98845.34
2023-02-22T10:14:55.512Z,98839.38
2023-02-22T10:17:29.707Z,98836.19
2023-02-22T10:20:22.611Z,98840.25
2023-02-22T10:23:01.648Z,98832.53
2023-02-22T10:25:28.868Z,98832.06
2023-02-22T10:28:00.777Z,98836.84
2023-02-22T10:30:34.337Z,98834.50
2023-02-22T10:33:22.059Z,98830.59
2023-02-22T10:35:49.350Z,98824.22
2023-02-22T10:38:26.726Z,98823.72
2023-02-22T10:41:04.295Z,98820.06
2023-02-22T10:43:31.199Z,98821.66
2023-02-22T10:46:01.420Z,98822.66
2023-02-22T10:48:28.743Z,98824.72
2023-02-22T10:51:02.110Z,98820.44
2023-02-22T10:53:29.886Z,98829.78
2023-02-22T10:56:19.213Z,98819.97
2023-02-22T10:58:53.620Z,98820.69
2023-02-22T11:01:33.001Z,98821.66
2023-02-22T11:04:10.027Z,98825.47
2023-02-22T11:06:37.243Z,98820.91
2023-02-22T11:09:11.848Z,98823.63
2023-02-22T11:11:41.281Z,98817.38
2023-02-22T11:14:10.804Z,98818.44
2023-02-22T11:16:40.829Z,98810.56
2023-02-22T11:19:25.253Z,98820.53
2023-02-22T11:21:55.006Z,98811.91
2023-02-22T11:24:30.339Z,98811.53
2023-02-22T11:27:01.601Z,98810.56
2023-02-22T11:29:33.639Z,98805.16
2023-02-22T11:32:02.136Z,98808.19
2023-02-22T11:34:39.682Z,98792.34
2023-02-22T11:37:26.014Z,98794.25
2023-02-22T11:40:19.885Z,98793.63
2023-02-22T11:42:46.972Z,98786.94
2023-02-22T11:45:23.720Z,98784.25
2023-02-22T11:47:52.616Z,98785.63
2023-02-22T11:50:29.084Z,98794.28
2023-02-22T11:53:09.842Z,98788.91
2023-02-22T11:55:45.040Z,98786.63
2023-02-22T11:58:27.255Z,98787.94
2023-02-22T12:00:58.828Z,98789.22
2023-02-22T12:03:54.258Z,98786.22
2023-02-22T12:06:27.131Z,98777.25
2023-02-22T12:09:06.176Z,98783.13
2023-02-22T12:11:57.277Z,98789.75
2023-02-22T12:14:52.655Z,98782.25
2023-02-22T12:17:26.423Z,98785.06
2023-02-22T12:19:56.416Z,98775.84
2023-02-22T12:22:26.353Z,98778.28
2023-02-22T12:25:09.098Z,98785.28
2023-02-22T12:27:42.673Z,98785.28
2023-02-22T12:30:29.366Z,98782.44
2023-02-22T12:33:01.198Z,98784.16
2023-02-22T12:35:30.279Z,98779.75
2023-02-22T12:38:04.693Z,98777.88
2023-02-22T12:40:57.118Z,98775.19
2023-02-22T12:43:33.201Z,98780.47
2023-02-22T12:46:04.724Z,98779.19
2023-02-22T12:48:35.275Z,98778.22
2023-02-22T12:51:24.627Z,98763.16
2023-02-22T12:54:42.155Z,98776.34
2023-02-22T12:57:20.156Z,98767.84
2023-02-22T12:59:49.536Z,98765.84
2023-02-22T13:02:54.478Z,98773.84
2023-02-22T13:05:21.540Z,98769.47
2023-02-22T13:08:08.774Z,98765.34
2023-02-22T13:10:58.910Z,98762.63
2023-02-22T13:13:54.944Z,98764.19
2023-02-22T13:16:25.344Z,98762.34
2023-02-22T13:19:01.545Z,98761.47
2023-02-22T13:21:34.168Z,98754.94
2023-02-22T13:24:12.634Z,98764.50
2023-02-22T13:26:50.729Z,98754.41
2023-02-22T13:29:23.264Z,98758.81
2023-02-22T13:32:22.068Z,98760.41
2023-02-22T13:35:04.880Z,98764.09
2023-02-22T13:37:35.777Z,98756.56
2023-02-22T13:40:28.496Z,98752.88
2023-02-22T13:43:07.480Z,98753.59
2023-02-22T13:46:03.876Z,98753.59
2023-02-22T13:48:49.054Z,98754.31
2023-02-22T13:51:34.408Z,98759.72
2023-02-22T13:54:14.274Z,98748.88
2023-02-22T13:56:45.378Z,98761.41
2023-02-22T13:59:30.366Z,98758.25
2023-02-22T14:01:58.103Z,98759.41
2023-02-22T14:04:27.946Z,98755.97
2023-02-22T14:06:55.972Z,98762.25
2023-02-22T14:09:48.324Z,98756.28
2023-02-22T14:12:30.657Z,98751.03
2023-02-22T14:15:29.255Z,98756.03
2023-02-22T14:17:56.965Z,98753.31
2023-02-22T14:20:36.106Z,98759.41
2023-02-22T14:23:40.279Z,98757.72
2023-02-22T14:26:19.414Z,98759.28
2023-02-22T14:28:59.725Z,98757.56
2023-02-22T14:31:37.048Z,98758.09
2023-02-22T14:34:13.949Z,98758.09
2023-02-22T14:36:51.382Z,98757.25
2023-02-22T14:39:23.596Z,98760.69
2023-02-22T14:41:56.449Z,98767.38
2023-02-22T14:44:26.444Z,98765.13
2023-02-22T14:46:54.942Z,98761.66
2023-02-22T14:49:22.985Z,98770.53
2023-02-22T14:51:56.380Z,98772.09
2023-02-22T14:54:30.632Z,98778.34
2023-02-22T14:57:14.737Z,98770.09
2023-02-22T14:59:55.089Z,98768.41
2023-02-22T15:02:25.978Z,98769.13
2023-02-22T15:04:54.126Z,98763.72
2023-02-22T15:07:27.542Z,98769.13
2023-02-22T15:10:20.672Z,98767.06
2023-02-22T15:13:09.684Z,98769.34
2023-02-22T15:15:46.946Z,98757.66
2023-02-22T15:18:35.409Z,98762.09
2023-02-22T15:21:16.316Z,98755.09
2023-02-22T15:23:44.646Z,98763.06
2023-02-22T15:26:35.130Z,98760.75
2023-02-22T15:29:02.328Z,98761.59
2023-02-22T15:31:34.317Z,98756.50
2023-02-22T15:34:18.998Z,98758.44
2023-02-22T15:36:46.613Z,98763.16
2023-02-22T15:39:22.900Z,98757.75
2023-02-22T15:41:51.130Z,98747.31
2023-02-22T15:44:23.559Z,98754.00
2023-02-22T15:46:52.258Z,98749.69
2023-02-22T15:49:20.489Z,98745.44
2023-02-22T15:51:49.259Z,98752.97
2023-02-22T15:54:26.465Z,98758.75
2023-02-22T15:56:57.295Z,98755.44
2023-02-22T15:59:29.643Z,98758.28
2023-02-22T16:01:57.638Z,98758.66
2023-02-22T16:04:27.051Z,98756.47
2023-02-22T16:07:01.900Z,98770.16
2023-02-22T16:09:30.468Z,98766.84
2023-02-22T16:12:10.817Z,98760.97
2023-02-22T16:14:40.408Z,98765.06
2023-02-22T16:17:30.768Z,98762.47
2023-02-22T16:19:59.118Z,98770.25
2023-02-22T16:22:36.485Z,98767.56
2023-02-22T16:25:16.565Z,98766.25
2023-02-22T16:27:55.813Z,98773.13
2023-02-22T16:30:36.616Z,98773.53
2023-02-22T16:33:05.605Z,98770.97
2023-02-22T16:35:35.646Z,98778.31
2023-02-22T16:38:04.452Z,98774.16
2023-02-22T16:40:34.596Z,98771.72
2023-02-22T16:43:07.061Z,98776.28
2023-02-22T16:45:34.380Z,98788.19
2023-02-22T16:48:04.910Z,98781.09
2023-02-22T16:50:31.779Z,98783.56
2023-02-22T16:52:58.878Z,98788.38
2023-02-22T16:55:25.710Z,98791.44
2023-02-22T16:57:55.239Z,98791.81
2023-02-22T17:00:31.293Z,98794.75
2023-02-22T17:02:59.555Z,98791.22
2023-02-22T17:05:26.387Z,98794.03
2023-02-22T17:07:53.503Z,98790.59
2023-02-22T17:10:20.322Z,98792.09
2023-02-22T17:12:48.004Z,98791.94
2023-02-22T17:15:35.099Z,98796.25
2023-02-22T17:18:05.986Z,98789.28
2023-02-22T17:20:32.793Z,98802.06
2023-02-22T17:23:01.497Z,98790.50
2023-02-22T17:25:34.624Z,98795.06
2023-02-22T17:28:01.699Z,98796.41
2023-02-22T17:30:28.545Z,98786.06
2023-02-22T17:33:03.590Z,98794.91
2023-02-22T17:35:36.900Z,98792.44
2023-02-22T17:38:08.392Z,98796.25
2023-02-22T17:40:36.576Z,98797.25
2023-02-22T17:43:04.117Z,98797.47
2023-02-22T17:45:31.124Z,98792.06
2023-02-22T17:48:01.067Z,98796.13
2023-02-22T17:50:27.927Z,98806.22
2023-02-22T17:52:55.087Z,98795.66
2023-02-22T17:55:22.397Z,98790.25
2023-02-22T17:57:56.892Z,98789.53
2023-02-22T18:00:33.100Z,98793.44
2023-02-22T18:03:05.578Z,98796.38
2023-02-22T18:05:35.318Z,98781.66
2023-02-22T18:08:02.441Z,98786.31
2023-02-22T18:10:29.262Z,98788.03
2023-02-22T18:12:56.855Z,98794.88
2023-02-22T18:15:23.676Z,98788.41
2023-02-22T18:17:50.747Z,98792.91
2023-02-22T18:20:31.008Z,98789.50
2023-02-22T18:22:58.900Z,98796.84
2023-02-22T18:25:26.003Z,98787.91
2023-02-22T18:27:54.990Z,98796.13
2023-02-22T18:30:21.928Z,98792.94
2023-02-22T18:32:49.067Z,98799.53
2023-02-22T18:35:15.905Z,98792.31
2023-02-22T18:37:44.478Z,98791.44
2023-02-22T18:40:11.277Z,98799.66
2023-02-22T18:42:40.238Z,98799.03
2023-02-22T18:45:07.690Z,98790.22
2023-02-22T18:47:39.565Z,98795.72
2023-02-22T18:50:07.204Z,98787.13
2023-02-22T18:52:35.663Z,98787.97
2023-02-22T18:55:02.493Z,98793.59
2023-02-22T18:57:29.617Z,98784.66
2023-02-22T18:59:56.874Z,98784.50
2023-02-22T19:02:25.546Z,98788.94
2023-02-22T19:04:52.590Z,98791.53
2023-02-22T19:07:20.690Z,98798.00
2023-02-22T19:09:51.044Z,98792.38
2023-02-22T19:12:19.003Z,98792.72
2023-02-22T19:14:48.558Z,98791.13
2023-02-22T19:17:16.167Z,98795.53
2023-02-22T19:19:43.809Z,98795.41
2023-02-22T19:22:15.097Z,98790.25
2023-02-22T19:24:42.945Z,98788.28
2023-02-22T19:27:11.024Z,98784.84
2023-02-22T19:29:40.670Z,98794.63
2023-02-22T19:32:08.904Z,98792.94
2023-02-22T19:34:37.044Z,98786.03
2023-02-22T19:37:05.469Z,98789.13
2023-02-22T19:39:33.040Z,98790.81
2023-02-22T19:42:00.524Z,98789.13
2023-02-22T19:44:27.516Z,98789.13
2023-02-22T19:46:57.561Z,98796.09
2023-02-22T19:51:58.189Z,98793.84
2023-02-22T19:54:24.976Z,98799.63
2023-02-22T19:56:52.139Z,98799.34
2023-02-22T19:59:22.798Z,98800.47
2023-02-22T20:01:52.614Z,98800.91
2023-02-22T20:04:21.415Z,98801.66
2023-02-22T20:06:50.643Z,98801.78
2023-02-22T20:09:23.365Z,98810.44
2023-02-22T20:11:51.916Z,98809.09
2023-02-22T20:14:21.147Z,98807.00
2023-02-22T20:16:48.353Z,98806.91
2023-02-22T20:19:15.162Z,98803.31
2023-02-22T20:21:42.868Z,98807.75
2023-02-22T20:24:12.088Z,98806.38
2023-02-22T20:26:40.001Z,98801.31
2023-02-22T20:29:07.231Z,98805.84
2023-02-22T20:31:34.451Z,98803.88
2023-02-22T20:34:01.833Z,98811.44
2023-02-22T20:36:29.541Z,98805.94
2023-02-22T20:38:58.037Z,98807.75
2023-02-22T20:41:27.099Z,98807.03
2023-02-22T20:43:55.218Z,98803.59
2023-02-22T20:46:23.722Z,98800.06
2023-02-22T20:48:55.289Z,98803.31
2023-02-22T20:51:22.595Z,98795.44
2023-02-22T20:53:50.084Z,98791.69
2023-02-22T20:56:21.780Z,98792.88
2023-02-22T20:58:48.692Z,98787.06
2023-02-22T21:01:17.219Z,98793.66
2023-02-22T21:03:44.183Z,98796.78
2023-02-22T21:06:15.289Z,98795.88
2023-02-22T21:08:43.535Z,98793.19
2023-02-22T21:11:14.592Z,98792.78
2023-02-22T21:13:41.610Z,98794.53
2023-02-22T21:16:10.389Z,98784.97
2023-02-22T21:18:37.353Z,98789.81
2023-02-22T21:21:12.647Z,98798.75
2023-02-22T21:23:40.028Z,98785.91
2023-02-22T21:26:07.850Z,98788.72
2023-02-22T21:28:50.441Z,98794.53
2023-02-22T21:31:23.461Z,98785.84
2023-02-22T21:33:51.841Z,98785.84
2023-02-22T21:36:19.043Z,98788.31
2023-02-22T21:38:53.384Z,98794.25
2023-02-22T21:41:21.362Z,98790.59
2023-02-22T21:43:51.761Z,98787.16
2023-02-22T21:46:19.197Z,98783.72
2023-02-22T21:48:48.810Z,98777.56
2023-02-22T21:51:17.808Z,98779.00
2023-02-22T21:53:48.648Z,98772.88
2023-02-22T21:56:18.857Z,98780.00
2023-02-22T21:58:46.467Z,98775.91
2023-02-22T22:01:17.598Z,98768.66
2023-02-22T22:03:45.303Z,98768.72
2023-02-22T22:06:13.691Z,98770.19
2023-02-22T22:08:41.731Z,98766.88
2023-02-22T22:11:10.174Z,98760.00
2023-02-22T22:13:38.223Z,98765.81
2023-02-22T22:16:10.595Z,98763.88
2023-02-22T22:18:38.161Z,98764.88
2023-02-22T22:21:16.246Z,98760.75
2023-02-22T22:23:47.087Z,98759.19
2023-02-22T22:26:17.003Z,98748.00
2023-02-22T22:28:45.094Z,98751.53
2023-02-22T22:31:12.547Z,98750.16
2023-02-22T22:33:41.074Z,98751.63
2023-02-22T22:36:09.389Z,98756.59
2023-02-22T22:38:39.584Z,98754.13
2023-02-22T22:41:07.720Z,98750.56
2023-02-22T22:43:35.429Z,98754.31
2023-02-22T22:46:03.544Z,98762.50
2023-02-22T22:48:31.458Z,98763.06
2023-02-22T22:51:02.659Z,98763.25
2023-02-22T22:53:31.350Z,98757.25
2023-02-22T22:56:05.390Z,98764.66
2023-02-22T22:58:33.848Z,98760.34
2023-02-22T23:01:05.928Z,98761.00
2023-02-22T23:03:38.845Z,98758.75
2023-02-22T23:06:06.034Z,98756.91
2023-02-22T23:08:43.146Z,98759.06
2023-02-22T23:11:10.911Z,98759.16
2023-02-22T23:13:38.343Z,98757.44
2023-02-22T23:16:12.055Z,98756.84
2023-02-22T23:18:43.108Z,98759.66
2023-02-22T23:21:10.706Z,98758.16
2023-02-22T23:23:37.808Z,98762.56
2023-02-22T23:26:15.999Z,98764.59
2023-02-22T23:28:42.762Z,98764.91
2023-02-22T23:31:10.497Z,98764.03
2023-02-22T23:33:38.308Z,98761.69
2023-02-22T23:36:06.319Z,98762.75
2023-02-22T23:38:34.865Z,98768.31
2023-02-22T23:41:03.050Z,98770.34
2023-02-22T23:43:32.579Z,98767.56
2023-02-22T23:46:04.006Z,98767.22
2023-02-22T23:48:30.741Z,98765.50
2023-02-22T23:51:00.672Z,98767.53
2023-02-22T23:53:29.971Z,98767.06
2023-02-22T23:55:57.070Z,98765.19
2023-02-22T23:58:27.013Z,98773.31
